Time;durP1;ratioP1;P1;durP2;ratioP2;P2;SDS_P1;SDS_P2;PMS_P1;PMS_P2;Temp;Humidity;BMP_temperature;BMP_pressure;BME280_temperature;BME280_humidity;BME280_pressure;Samples;Min_cycle;Max_cycle;Signal;HPM_P1;HPM_P2
2021/12/22 00:04:00;;;;;;;;;34.33;29.33;;;;;;;;6490697;39;8921;-52
2021/12/22 00:10:04;;;;;;;;;24.67;24.67;;;;;;;;6490240;39;8891;-50
2021/12/22 00:16:06;;;;;;;;;33.67;32.00;;;;;;;;6489888;47;8857;-53
2021/12/22 00:22:09;;;;;;;;;28.00;27.67;;;;;;;;6491265;31;8851;-52
2021/12/22 00:28:13;;;;;;;;;34.33;29.67;;;;;;;;6490145;39;8872;-51
2021/12/22 00:34:16;;;;;;;;;18.67;15.67;;;;;;;;6490232;39;9940;-52
2021/12/22 00:40:19;;;;;;;;;48.67;32.33;;;;;;;;6490160;39;8903;-49
2021/12/22 00:46:21;;;;;;;;;28.00;22.00;;;;;;;;6493440;39;8859;-53
2021/12/22 00:52:25;;;;;;;;;33.33;28.00;;;;;;;;6492865;31;8972;-54
2021/12/22 00:58:28;;;;;;;;;26.67;25.00;;;;;;;;6491280;39;8920;-54
2021/12/22 01:04:30;;;;;;;;;30.67;25.00;;;;;;;;6491799;31;9028;-57
2021/12/22 01:10:33;;;;;;;;;28.00;25.00;;;;;;;;6492466;39;8910;-52
2021/12/22 01:16:35;;;;;;;;;27.67;24.00;;;;;;;;6491579;31;8876;-53
2021/12/22 01:22:48;;;;;;;;;29.00;25.00;;;;;;;;6491852;46;8911;-55
2021/12/22 01:28:50;;;;;;;;;24.67;24.67;;;;;;;;6492409;39;9075;-55
2021/12/22 01:34:52;;;;;;;;;32.33;27.00;;;;;;;;6492402;39;8907;-49
2021/12/22 01:40:54;;;;;;;;;30.33;24.67;;;;;;;;6492177;39;8926;-53
2021/12/22 01:53:22;;;;;;;;;33.67;33.00;;;;;;;;6491101;46;8905;-53
2021/12/22 01:59:25;;;;;;;;;36.33;33.00;;;;;;;;6491628;46;8884;-52
2021/12/22 02:05:33;;;;;;;;;43.67;38.33;;;;;;;;6491757;39;8986;-54
2021/12/22 02:11:35;;;;;;;;;47.33;36.00;;;;;;;;6491204;46;8899;-52
2021/12/22 02:17:39;;;;;;;;;35.67;32.00;;;;;;;;6491545;46;8923;-53
2021/12/22 02:23:42;;;;;;;;;30.33;29.33;;;;;;;;6491633;39;8930;-52
2021/12/22 02:29:47;;;;;;;;;39.67;30.33;;;;;;;;6491288;39;8903;-49
2021/12/22 02:36:23;;;;;;;;;34.00;27.33;;;;;;;;6492002;46;8976;-51
2021/12/22 02:42:19;;;;;;;;;32.33;29.33;;;;;;;;6491420;39;8912;-49
2021/12/22 02:48:23;;;;;;;;;37.67;30.33;;;;;;;;6492463;31;8893;-53
2021/12/22 02:54:28;;;;;;;;;32.67;31.33;;;;;;;;6490645;39;8881;-52
2021/12/22 03:00:46;;;;;;;;;44.67;37.67;;;;;;;;6491373;39;8892;-53
2021/12/22 03:12:53;;;;;;;;;50.00;43.67;;;;;;;;6491579;39;8895;-52
2021/12/22 03:18:55;;;;;;;;;49.00;45.00;;;;;;;;6491723;39;9548;-51
2021/12/22 03:24:57;;;;;;;;;55.75;47.25;;;;;;;;6491034;39;8874;-53
2021/12/22 03:30:59;;;;;;;;;58.33;48.00;;;;;;;;6490538;46;8840;-51
2021/12/22 03:37:02;;;;;;;;;45.00;42.33;;;;;;;;6491709;39;8890;-54
2021/12/22 03:43:04;;;;;;;;;43.67;41.33;;;;;;;;6490418;46;8896;-52
2021/12/22 03:49:09;;;;;;;;;43.67;40.00;;;;;;;;6491243;39;8943;-51
2021/12/22 03:55:11;;;;;;;;;48.33;41.33;;;;;;;;6490492;46;8979;-51
2021/12/22 04:01:14;;;;;;;;;45.00;40.33;;;;;;;;6491184;39;8916;-49
2021/12/22 04:07:17;;;;;;;;;50.67;43.00;;;;;;;;6490801;31;8913;-50
2021/12/22 04:13:20;;;;;;;;;42.33;37.67;;;;;;;;6490172;31;8911;-52
2021/12/22 04:19:22;;;;;;;;;51.00;39.67;;;;;;;;6490994;39;8892;-55
2021/12/22 04:25:25;;;;;;;;;47.00;40.67;;;;;;;;6490638;39;8875;-53
2021/12/22 04:31:27;;;;;;;;;39.00;37.00;;;;;;;;6489465;39;8927;-51
2021/12/22 04:37:29;;;;;;;;;54.00;45.00;;;;;;;;6490737;39;9010;-54
2021/12/22 04:43:31;;;;;;;;;58.33;40.00;;;;;;;;6490119;47;8892;-52
2021/12/22 04:49:33;;;;;;;;;55.33;42.33;;;;;;;;6490601;39;8915;-53
2021/12/22 04:55:36;;;;;;;;;49.67;44.67;;;;;;;;6489727;47;8921;-55
